sensor_id;sensor_type;location;lat;lon;timestamp;temperature;humidity
18444;DHT22;9350;53.176;8.194;2023-05-10T00:00:27;16.10;99.90
18444;DHT22;9350;53.176;8.194;2023-05-10T00:02:53;16.10;99.90
18444;DHT22;9350;53.176;8.194;2023-05-10T00:05:20;16.10;99.90
18444;DHT22;9350;53.176;8.194;2023-05-10T00:07:48;16.10;99.90
18444;DHT22;9350;53.176;8.194;2023-05-10T00:10:15;16.00;99.90
18444;DHT22;9350;53.176;8.194;2023-05-10T00:12:41;16.00;99.90
18444;DHT22;9350;53.176;8.194;2023-05-10T00:15:09;16.00;99.90
18444;DHT22;9350;53.176;8.194;2023-05-10T00:17:35;16.10;99.90
18444;DHT22;9350;53.176;8.194;2023-05-10T00:20:02;16.10;99.90
18444;DHT22;9350;53.176;8.194;2023-05-10T00:22:30;16.00;99.90
18444;DHT22;9350;53.176;8.194;2023-05-10T00:24:58;16.10;99.90
18444;DHT22;9350;53.176;8.194;2023-05-10T00:27:25;16.10;99.90
18444;DHT22;9350;53.176;8.194;2023-05-10T00:29:52;16.10;99.90
18444;DHT22;9350;53.176;8.194;2023-05-10T00:32:18;16.00;99.90
18444;DHT22;9350;53.176;8.194;2023-05-10T00:34:45;16.00;99.90
18444;DHT22;9350;53.176;8.194;2023-05-10T00:37:12;16.00;99.90
18444;DHT22;9350;53.176;8.194;2023-05-10T00:39:39;16.00;99.90
18444;DHT22;9350;53.176;8.194;2023-05-10T00:42:07;16.00;99.90
18444;DHT22;9350;53.176;8.194;2023-05-10T00:44:33;16.00;99.90
18444;DHT22;9350;53.176;8.194;2023-05-10T00:47:00;16.00;99.90
18444;DHT22;9350;53.176;8.194;2023-05-10T00:49:27;16.00;99.90
18444;DHT22;9350;53.176;8.194;2023-05-10T00:51:54;16.00;99.90
18444;DHT22;9350;53.176;8.194;2023-05-10T00:54:21;16.10;99.90
18444;DHT22;9350;53.176;8.194;2023-05-10T00:56:48;16.00;99.90
18444;DHT22;9350;53.176;8.194;2023-05-10T00:59:17;16.00;99.90
18444;DHT22;9350;53.176;8.194;2023-05-10T01:01:44;16.00;99.90
18444;DHT22;9350;53.176;8.194;2023-05-10T01:04:12;16.00;99.90
18444;DHT22;9350;53.176;8.194;2023-05-10T01:06:39;16.00;99.90
18444;DHT22;9350;53.176;8.194;2023-05-10T01:09:06;16.00;99.90
18444;DHT22;9350;53.176;8.194;2023-05-10T01:11:33;16.00;99.90
18444;DHT22;9350;53.176;8.194;2023-05-10T01:14:01;15.90;99.90
18444;DHT22;9350;53.176;8.194;2023-05-10T01:16:33;16.00;99.90
18444;DHT22;9350;53.176;8.194;2023-05-10T01:19:00;15.90;99.90
18444;DHT22;9350;53.176;8.194;2023-05-10T01:21:32;15.90;99.90
18444;DHT22;9350;53.176;8.194;2023-05-10T01:24:37;15.90;99.90
18444;DHT22;9350;53.176;8.194;2023-05-10T01:27:24;16.00;99.90
18444;DHT22;9350;53.176;8.194;2023-05-10T01:30:14;15.90;99.90
18444;DHT22;9350;53.176;8.194;2023-05-10T01:32:57;15.90;99.90
18444;DHT22;9350;53.176;8.194;2023-05-10T01:35:30;15.80;99.90
18444;DHT22;9350;53.176;8.194;2023-05-10T01:38:04;15.90;99.90
18444;DHT22;9350;53.176;8.194;2023-05-10T01:40:39;15.80;99.90
18444;DHT22;9350;53.176;8.194;2023-05-10T01:43:11;15.90;99.90
18444;DHT22;9350;53.176;8.194;2023-05-10T01:45:49;15.90;99.90
18444;DHT22;9350;53.176;8.194;2023-05-10T01:48:19;15.80;99.90
18444;DHT22;9350;53.176;8.194;2023-05-10T01:50:48;15.80;99.90
18444;DHT22;9350;53.176;8.194;2023-05-10T01:53:18;15.80;99.90
18444;DHT22;9350;53.176;8.194;2023-05-10T01:55:47;15.80;99.90
18444;DHT22;9350;53.176;8.194;2023-05-10T01:58:19;15.80;99.90
18444;DHT22;9350;53.176;8.194;2023-05-10T02:00:47;15.80;99.90
18444;DHT22;9350;53.176;8.194;2023-05-10T02:03:17;15.80;99.90
18444;DHT22;9350;53.176;8.194;2023-05-10T02:05:46;15.80;99.90
18444;DHT22;9350;53.176;8.194;2023-05-10T02:08:16;15.80;99.90
18444;DHT22;9350;53.176;8.194;2023-05-10T02:10:45;15.80;99.90
18444;DHT22;9350;53.176;8.194;2023-05-10T02:13:13;15.80;99.90
18444;DHT22;9350;53.176;8.194;2023-05-10T02:15:41;15.80;99.90
18444;DHT22;9350;53.176;8.194;2023-05-10T02:18:11;15.70;99.90
18444;DHT22;9350;53.176;8.194;2023-05-10T02:20:39;15.80;99.90
18444;DHT22;9350;53.176;8.194;2023-05-10T02:23:07;15.70;99.90
18444;DHT22;9350;53.176;8.194;2023-05-10T02:25:35;15.80;99.90
18444;DHT22;9350;53.176;8.194;2023-05-10T02:28:05;15.70;99.90
18444;DHT22;9350;53.176;8.194;2023-05-10T02:30:32;15.60;99.90
18444;DHT22;9350;53.176;8.194;2023-05-10T02:33:00;15.70;99.90
18444;DHT22;9350;53.176;8.194;2023-05-10T02:35:28;15.60;99.90
18444;DHT22;9350;53.176;8.194;2023-05-10T02:37:58;15.60;99.90
18444;DHT22;9350;53.176;8.194;2023-05-10T02:40:26;15.70;99.90
18444;DHT22;9350;53.176;8.194;2023-05-10T02:42:55;15.60;99.90
18444;DHT22;9350;53.176;8.194;2023-05-10T02:45:27;15.60;99.90
18444;DHT22;9350;53.176;8.194;2023-05-10T02:47:55;15.70;99.90
18444;DHT22;9350;53.176;8.194;2023-05-10T02:50:22;15.60;99.90
18444;DHT22;9350;53.176;8.194;2023-05-10T02:52:55;15.60;99.90
18444;DHT22;9350;53.176;8.194;2023-05-10T02:55:29;15.60;99.90
18444;DHT22;9350;53.176;8.194;2023-05-10T02:57:59;15.60;99.90
18444;DHT22;9350;53.176;8.194;2023-05-10T03:00:26;15.70;99.90
18444;DHT22;9350;53.176;8.194;2023-05-10T03:02:53;15.70;99.90
18444;DHT22;9350;53.176;8.194;2023-05-10T03:05:20;15.70;99.90
18444;DHT22;9350;53.176;8.194;2023-05-10T03:07:47;15.70;99.90
18444;DHT22;9350;53.176;8.194;2023-05-10T03:10:14;15.70;99.90
18444;DHT22;9350;53.176;8.194;2023-05-10T03:12:52;15.70;99.90
18444;DHT22;9350;53.176;8.194;2023-05-10T03:15:25;15.70;99.90
18444;DHT22;9350;53.176;8.194;2023-05-10T03:17:57;15.70;99.90
18444;DHT22;9350;53.176;8.194;2023-05-10T03:20:33;15.60;99.90
18444;DHT22;9350;53.176;8.194;2023-05-10T03:23:04;15.60;99.90
18444;DHT22;9350;53.176;8.194;2023-05-10T03:25:34;15.60;99.90
18444;DHT22;9350;53.176;8.194;2023-05-10T03:28:03;15.70;99.90
18444;DHT22;9350;53.176;8.194;2023-05-10T03:30:31;15.70;99.90
18444;DHT22;9350;53.176;8.194;2023-05-10T03:33:04;15.70;99.90
18444;DHT22;9350;53.176;8.194;2023-05-10T03:35:31;15.60;99.90
18444;DHT22;9350;53.176;8.194;2023-05-10T03:37:58;15.60;99.90
18444;DHT22;9350;53.176;8.194;2023-05-10T03:40:25;15.70;99.90
18444;DHT22;9350;53.176;8.194;2023-05-10T03:42:54;15.70;99.90
18444;DHT22;9350;53.176;8.194;2023-05-10T03:45:22;15.60;99.90
18444;DHT22;9350;53.176;8.194;2023-05-10T03:47:49;15.60;99.90
18444;DHT22;9350;53.176;8.194;2023-05-10T03:50:15;15.60;99.90
18444;DHT22;9350;53.176;8.194;2023-05-10T03:52:42;15.60;99.90
18444;DHT22;9350;53.176;8.194;2023-05-10T03:55:09;15.60;99.90
18444;DHT22;9350;53.176;8.194;2023-05-10T03:57:36;15.50;99.90
18444;DHT22;9350;53.176;8.194;2023-05-10T04:00:03;15.50;99.90
18444;DHT22;9350;53.176;8.194;2023-05-10T04:02:32;15.50;99.90
18444;DHT22;9350;53.176;8.194;2023-05-10T04:04:58;15.40;99.90
18444;DHT22;9350;53.176;8.194;2023-05-10T04:07:25;15.40;99.90
18444;DHT22;9350;53.176;8.194;2023-05-10T04:09:52;15.40;99.90
18444;DHT22;9350;53.176;8.194;2023-05-10T04:12:18;15.40;99.90
18444;DHT22;9350;53.176;8.194;2023-05-10T04:14:45;15.40;99.90
18444;DHT22;9350;53.176;8.194;2023-05-10T04:17:12;15.40;99.90
18444;DHT22;9350;53.176;8.194;2023-05-10T04:19:40;15.40;99.90
18444;DHT22;9350;53.176;8.194;2023-05-10T04:22:06;15.40;99.90
18444;DHT22;9350;53.176;8.194;2023-05-10T04:24:34;15.40;99.90
18444;DHT22;9350;53.176;8.194;2023-05-10T04:27:00;15.40;99.90
18444;DHT22;9350;53.176;8.194;2023-05-10T04:29:27;15.40;99.90
18444;DHT22;9350;53.176;8.194;2023-05-10T04:31:54;15.40;99.90
18444;DHT22;9350;53.176;8.194;2023-05-10T04:34:22;15.40;99.90
18444;DHT22;9350;53.176;8.194;2023-05-10T04:36:50;15.30;99.90
18444;DHT22;9350;53.176;8.194;2023-05-10T04:39:16;15.30;99.90
18444;DHT22;9350;53.176;8.194;2023-05-10T04:41:43;15.20;99.90
18444;DHT22;9350;53.176;8.194;2023-05-10T04:44:10;15.30;99.90
18444;DHT22;9350;53.176;8.194;2023-05-10T04:46:36;15.30;99.90
18444;DHT22;9350;53.176;8.194;2023-05-10T04:49:03;15.30;99.90
18444;DHT22;9350;53.176;8.194;2023-05-10T04:51:30;15.30;99.90
18444;DHT22;9350;53.176;8.194;2023-05-10T04:53:58;15.30;99.90
18444;DHT22;9350;53.176;8.194;2023-05-10T04:56:25;15.20;99.90
18444;DHT22;9350;53.176;8.194;2023-05-10T04:58:52;15.10;99.90
18444;DHT22;9350;53.176;8.194;2023-05-10T05:01:18;15.00;99.90
18444;DHT22;9350;53.176;8.194;2023-05-10T05:03:45;15.00;99.90
18444;DHT22;9350;53.176;8.194;2023-05-10T05:06:12;14.90;99.90
18444;DHT22;9350;53.176;8.194;2023-05-10T05:08:38;14.90;99.90
18444;DHT22;9350;53.176;8.194;2023-05-10T05:11:06;14.80;99.90
18444;DHT22;9350;53.176;8.194;2023-05-10T05:13:33;14.80;99.90
18444;DHT22;9350;53.176;8.194;2023-05-10T05:16:01;14.80;99.90
18444;DHT22;9350;53.176;8.194;2023-05-10T05:18:28;14.80;99.90
18444;DHT22;9350;53.176;8.194;2023-05-10T05:20:55;14.90;99.90
18444;DHT22;9350;53.176;8.194;2023-05-10T05:23:22;14.90;99.90
18444;DHT22;9350;53.176;8.194;2023-05-10T05:25:51;14.80;99.90
18444;DHT22;9350;53.176;8.194;2023-05-10T05:28:19;14.80;99.90
18444;DHT22;9350;53.176;8.194;2023-05-10T05:30:46;14.80;99.90
18444;DHT22;9350;53.176;8.194;2023-05-10T05:33:13;14.80;99.90
18444;DHT22;9350;53.176;8.194;2023-05-10T05:35:40;14.80;99.90
18444;DHT22;9350;53.176;8.194;2023-05-10T05:38:08;14.80;99.90
18444;DHT22;9350;53.176;8.194;2023-05-10T05:40:35;14.80;99.90
18444;DHT22;9350;53.176;8.194;2023-05-10T05:43:01;14.80;99.90
18444;DHT22;9350;53.176;8.194;2023-05-10T05:45:29;14.80;99.90
18444;DHT22;9350;53.176;8.194;2023-05-10T05:47:56;14.80;99.90
18444;DHT22;9350;53.176;8.194;2023-05-10T05:50:23;14.80;99.90
18444;DHT22;9350;53.176;8.194;2023-05-10T05:52:49;14.80;99.90
18444;DHT22;9350;53.176;8.194;2023-05-10T05:55:16;14.90;99.90
18444;DHT22;9350;53.176;8.194;2023-05-10T05:57:43;14.90;99.90
18444;DHT22;9350;53.176;8.194;2023-05-10T06:00:10;14.90;99.90
18444;DHT22;9350;53.176;8.194;2023-05-10T06:02:38;14.80;99.90
18444;DHT22;9350;53.176;8.194;2023-05-10T06:05:06;14.90;99.90
18444;DHT22;9350;53.176;8.194;2023-05-10T06:07:33;14.80;99.90
18444;DHT22;9350;53.176;8.194;2023-05-10T06:10:00;14.80;99.90
18444;DHT22;9350;53.176;8.194;2023-05-10T06:12:28;14.90;99.90
18444;DHT22;9350;53.176;8.194;2023-05-10T06:14:54;14.90;99.90
18444;DHT22;9350;53.176;8.194;2023-05-10T06:17:21;15.00;99.90
18444;DHT22;9350;53.176;8.194;2023-05-10T06:19:49;15.00;99.90
18444;DHT22;9350;53.176;8.194;2023-05-10T06:22:16;15.00;99.90
18444;DHT22;9350;53.176;8.194;2023-05-10T06:24:43;14.90;99.90
18444;DHT22;9350;53.176;8.194;2023-05-10T06:27:09;15.00;99.90
18444;DHT22;9350;53.176;8.194;2023-05-10T06:29:36;15.00;99.90
18444;DHT22;9350;53.176;8.194;2023-05-10T06:32:03;15.00;99.90
18444;DHT22;9350;53.176;8.194;2023-05-10T06:34:30;15.00;99.90
18444;DHT22;9350;53.176;8.194;2023-05-10T06:36:58;15.00;99.90
18444;DHT22;9350;53.176;8.194;2023-05-10T06:39:24;15.10;99.90
18444;DHT22;9350;53.176;8.194;2023-05-10T06:41:51;15.00;99.90
18444;DHT22;9350;53.176;8.194;2023-05-10T06:44:18;15.00;99.90
18444;DHT22;9350;53.176;8.194;2023-05-10T06:46:45;15.00;99.90
18444;DHT22;9350;53.176;8.194;2023-05-10T06:49:11;15.00;99.90
18444;DHT22;9350;53.176;8.194;2023-05-10T06:51:38;15.10;99.90
18444;DHT22;9350;53.176;8.194;2023-05-10T06:54:06;15.10;99.90
18444;DHT22;9350;53.176;8.194;2023-05-10T06:56:33;15.10;99.90
18444;DHT22;9350;53.176;8.194;2023-05-10T06:59:00;15.10;99.90
18444;DHT22;9350;53.176;8.194;2023-05-10T07:01:27;15.10;99.90
18444;DHT22;9350;53.176;8.194;2023-05-10T07:03:54;15.10;99.90
18444;DHT22;9350;53.176;8.194;2023-05-10T07:06:20;15.10;99.90
18444;DHT22;9350;53.176;8.194;2023-05-10T07:08:47;15.20;99.90
18444;DHT22;9350;53.176;8.194;2023-05-10T07:11:15;15.20;99.90
18444;DHT22;9350;53.176;8.194;2023-05-10T07:13:42;15.30;99.90
18444;DHT22;9350;53.176;8.194;2023-05-10T07:16:09;15.30;99.90
18444;DHT22;9350;53.176;8.194;2023-05-10T07:18:36;15.30;99.90
18444;DHT22;9350;53.176;8.194;2023-05-10T07:21:03;15.30;99.90
18444;DHT22;9350;53.176;8.194;2023-05-10T07:23:30;15.30;99.90
18444;DHT22;9350;53.176;8.194;2023-05-10T07:25:57;15.30;99.90
18444;DHT22;9350;53.176;8.194;2023-05-10T07:28:25;15.30;99.90
18444;DHT22;9350;53.176;8.194;2023-05-10T07:30:51;15.30;99.90
18444;DHT22;9350;53.176;8.194;2023-05-10T07:33:18;15.10;99.90
18444;DHT22;9350;53.176;8.194;2023-05-10T07:35:45;15.10;99.90
18444;DHT22;9350;53.176;8.194;2023-05-10T07:38:11;15.10;99.90
18444;DHT22;9350;53.176;8.194;2023-05-10T07:40:38;15.10;99.90
18444;DHT22;9350;53.176;8.194;2023-05-10T07:43:05;15.10;99.90
18444;DHT22;9350;53.176;8.194;2023-05-10T07:45:34;15.20;99.90
18444;DHT22;9350;53.176;8.194;2023-05-10T07:48:01;15.20;99.90
18444;DHT22;9350;53.176;8.194;2023-05-10T07:50:28;15.20;99.90
18444;DHT22;9350;53.176;8.194;2023-05-10T07:52:54;15.20;99.90
18444;DHT22;9350;53.176;8.194;2023-05-10T07:55:21;15.10;99.90
18444;DHT22;9350;53.176;8.194;2023-05-10T07:57:48;15.10;99.90
18444;DHT22;9350;53.176;8.194;2023-05-10T08:00:18;15.20;99.90
18444;DHT22;9350;53.176;8.194;2023-05-10T08:02:47;15.20;99.90
18444;DHT22;9350;53.176;8.194;2023-05-10T08:05:14;15.20;99.90
18444;DHT22;9350;53.176;8.194;2023-05-10T08:07:40;15.20;99.90
18444;DHT22;9350;53.176;8.194;2023-05-10T08:10:08;15.20;99.90
18444;DHT22;9350;53.176;8.194;2023-05-10T08:12:36;15.30;99.90
18444;DHT22;9350;53.176;8.194;2023-05-10T08:15:03;15.30;99.90
18444;DHT22;9350;53.176;8.194;2023-05-10T08:17:30;15.20;99.90
18444;DHT22;9350;53.176;8.194;2023-05-10T08:19:58;15.20;99.90
18444;DHT22;9350;53.176;8.194;2023-05-10T08:22:25;15.20;99.90
18444;DHT22;9350;53.176;8.194;2023-05-10T08:24:52;15.20;99.90
18444;DHT22;9350;53.176;8.194;2023-05-10T08:27:18;15.20;99.90
18444;DHT22;9350;53.176;8.194;2023-05-10T08:29:45;15.20;99.90
18444;DHT22;9350;53.176;8.194;2023-05-10T08:32:12;15.20;99.90
18444;DHT22;9350;53.176;8.194;2023-05-10T08:34:38;15.20;99.90
18444;DHT22;9350;53.176;8.194;2023-05-10T08:37:06;15.20;99.90
18444;DHT22;9350;53.176;8.194;2023-05-10T08:39:34;15.30;99.90
18444;DHT22;9350;53.176;8.194;2023-05-10T08:42:04;15.20;99.90
18444;DHT22;9350;53.176;8.194;2023-05-10T08:44:32;15.20;99.90
18444;DHT22;9350;53.176;8.194;2023-05-10T08:46:59;15.30;99.90
18444;DHT22;9350;53.176;8.194;2023-05-10T08:49:31;15.30;99.90
18444;DHT22;9350;53.176;8.194;2023-05-10T08:52:01;15.30;99.90
18444;DHT22;9350;53.176;8.194;2023-05-10T08:54:30;15.30;99.90
18444;DHT22;9350;53.176;8.194;2023-05-10T08:56:57;15.30;99.90
18444;DHT22;9350;53.176;8.194;2023-05-10T08:59:24;15.30;99.90
18444;DHT22;9350;53.176;8.194;2023-05-10T09:01:51;15.20;99.90
18444;DHT22;9350;53.176;8.194;2023-05-10T09:04:19;15.30;99.90
18444;DHT22;9350;53.176;8.194;2023-05-10T09:06:46;15.30;99.90
18444;DHT22;9350;53.176;8.194;2023-05-10T09:09:14;15.30;99.90
18444;DHT22;9350;53.176;8.194;2023-05-10T09:11:43;15.40;99.90
18444;DHT22;9350;53.176;8.194;2023-05-10T09:14:10;15.40;99.90
18444;DHT22;9350;53.176;8.194;2023-05-10T09:16:37;15.40;99.90
18444;DHT22;9350;53.176;8.194;2023-05-10T09:19:04;15.40;99.90
18444;DHT22;9350;53.176;8.194;2023-05-10T09:21:32;15.50;99.90
18444;DHT22;9350;53.176;8.194;2023-05-10T09:24:03;15.50;99.90
18444;DHT22;9350;53.176;8.194;2023-05-10T09:26:30;15.50;99.90
18444;DHT22;9350;53.176;8.194;2023-05-10T09:28:59;15.50;99.90
18444;DHT22;9350;53.176;8.194;2023-05-10T09:31:43;15.50;99.90
18444;DHT22;9350;53.176;8.194;2023-05-10T09:34:11;15.60;99.90
18444;DHT22;9350;53.176;8.194;2023-05-10T09:36:51;15.50;99.90
18444;DHT22;9350;53.176;8.194;2023-05-10T09:39:17;15.50;99.90
18444;DHT22;9350;53.176;8.194;2023-05-10T09:41:44;15.60;99.90
18444;DHT22;9350;53.176;8.194;2023-05-10T09:44:16;15.60;99.90
18444;DHT22;9350;53.176;8.194;2023-05-10T09:46:49;15.50;99.90
18444;DHT22;9350;53.176;8.194;2023-05-10T09:49:15;15.60;99.90
18444;DHT22;9350;53.176;8.194;2023-05-10T09:51:42;15.60;99.90
18444;DHT22;9350;53.176;8.194;2023-05-10T09:54:10;15.70;99.90
18444;DHT22;9350;53.176;8.194;2023-05-10T09:56:37;15.70;99.90
18444;DHT22;9350;53.176;8.194;2023-05-10T09:59:06;15.80;99.90
18444;DHT22;9350;53.176;8.194;2023-05-10T10:01:35;15.80;99.90
18444;DHT22;9350;53.176;8.194;2023-05-10T10:04:03;15.90;99.90
18444;DHT22;9350;53.176;8.194;2023-05-10T10:06:35;16.00;99.90
18444;DHT22;9350;53.176;8.194;2023-05-10T10:09:02;16.10;99.90
18444;DHT22;9350;53.176;8.194;2023-05-10T10:11:28;16.10;99.90
18444;DHT22;9350;53.176;8.194;2023-05-10T10:13:55;16.00;99.90
18444;DHT22;9350;53.176;8.194;2023-05-10T10:16:23;15.90;99.90
18444;DHT22;9350;53.176;8.194;2023-05-10T10:18:51;15.80;99.90
18444;DHT22;9350;53.176;8.194;2023-05-10T10:21:18;15.80;99.90
18444;DHT22;9350;53.176;8.194;2023-05-10T10:23:46;15.80;99.90
18444;DHT22;9350;53.176;8.194;2023-05-10T10:26:13;15.90;99.90
18444;DHT22;9350;53.176;8.194;2023-05-10T10:28:47;16.00;99.90
18444;DHT22;9350;53.176;8.194;2023-05-10T10:31:21;16.00;99.90
18444;DHT22;9350;53.176;8.194;2023-05-10T10:33:59;16.10;99.90
18444;DHT22;9350;53.176;8.194;2023-05-10T10:36:27;16.10;99.90
18444;DHT22;9350;53.176;8.194;2023-05-10T10:39:00;16.00;99.90
18444;DHT22;9350;53.176;8.194;2023-05-10T10:41:30;16.00;99.90
18444;DHT22;9350;53.176;8.194;2023-05-10T10:44:22;16.00;99.90
18444;DHT22;9350;53.176;8.194;2023-05-10T10:49:51;16.00;99.90
18444;DHT22;9350;53.176;8.194;2023-05-10T10:52:23;16.10;99.90
18444;DHT22;9350;53.176;8.194;2023-05-10T10:54:57;16.00;99.90
18444;DHT22;9350;53.176;8.194;2023-05-10T10:57:24;15.80;99.90
18444;DHT22;9350;53.176;8.194;2023-05-10T10:59:53;15.80;99.90
18444;DHT22;9350;53.176;8.194;2023-05-10T11:02:45;15.70;99.90
18444;DHT22;9350;53.176;8.194;2023-05-10T11:08:12;15.60;99.90
18444;DHT22;9350;53.176;8.194;2023-05-10T11:10:48;15.70;99.90
18444;DHT22;9350;53.176;8.194;2023-05-10T11:13:27;15.80;99.90
18444;DHT22;9350;53.176;8.194;2023-05-10T11:15:54;15.70;99.90
18444;DHT22;9350;53.176;8.194;2023-05-10T11:18:24;15.80;99.90
18444;DHT22;9350;53.176;8.194;2023-05-10T11:20:55;15.80;99.90
18444;DHT22;9350;53.176;8.194;2023-05-10T11:23:22;15.80;99.90
18444;DHT22;9350;53.176;8.194;2023-05-10T11:25:49;15.80;99.90
18444;DHT22;9350;53.176;8.194;2023-05-10T11:28:17;15.80;99.90
18444;DHT22;9350;53.176;8.194;2023-05-10T11:30:44;15.70;99.90
18444;DHT22;9350;53.176;8.194;2023-05-10T11:33:15;15.50;99.90
18444;DHT22;9350;53.176;8.194;2023-05-10T11:35:42;15.50;99.90
18444;DHT22;9350;53.176;8.194;2023-05-10T11:38:12;15.40;99.90
18444;DHT22;9350;53.176;8.194;2023-05-10T11:40:40;15.50;99.90
18444;DHT22;9350;53.176;8.194;2023-05-10T11:43:09;15.40;99.90
18444;DHT22;9350;53.176;8.194;2023-05-10T11:45:36;15.40;99.90
18444;DHT22;9350;53.176;8.194;2023-05-10T11:48:03;15.40;99.90
18444;DHT22;9350;53.176;8.194;2023-05-10T11:50:30;15.40;99.90
18444;DHT22;9350;53.176;8.194;2023-05-10T11:52:57;15.40;99.90
18444;DHT22;9350;53.176;8.194;2023-05-10T11:55:26;15.50;99.90
18444;DHT22;9350;53.176;8.194;2023-05-10T11:57:53;15.60;99.90
18444;DHT22;9350;53.176;8.194;2023-05-10T12:00:20;15.50;99.90
18444;DHT22;9350;53.176;8.194;2023-05-10T12:02:48;15.40;99.90
18444;DHT22;9350;53.176;8.194;2023-05-10T12:05:15;15.40;99.90
18444;DHT22;9350;53.176;8.194;2023-05-10T12:07:42;15.40;99.90
18444;DHT22;9350;53.176;8.194;2023-05-10T12:10:11;15.50;99.90
18444;DHT22;9350;53.176;8.194;2023-05-10T12:12:42;15.30;99.90
18444;DHT22;9350;53.176;8.194;2023-05-10T12:15:16;15.40;99.90
18444;DHT22;9350;53.176;8.194;2023-05-10T12:17:44;15.40;99.90
18444;DHT22;9350;53.176;8.194;2023-05-10T12:20:19;15.40;99.90
18444;DHT22;9350;53.176;8.194;2023-05-10T12:22:47;15.50;99.90
18444;DHT22;9350;53.176;8.194;2023-05-10T12:25:15;15.50;99.90
18444;DHT22;9350;53.176;8.194;2023-05-10T12:27:49;15.60;99.90
18444;DHT22;9350;53.176;8.194;2023-05-10T12:30:21;15.60;99.90
18444;DHT22;9350;53.176;8.194;2023-05-10T12:32:48;15.60;99.90
18444;DHT22;9350;53.176;8.194;2023-05-10T12:35:15;15.70;99.90
18444;DHT22;9350;53.176;8.194;2023-05-10T12:37:42;15.70;99.90
18444;DHT22;9350;53.176;8.194;2023-05-10T12:40:10;15.70;99.90
18444;DHT22;9350;53.176;8.194;2023-05-10T12:42:38;15.80;99.90
18444;DHT22;9350;53.176;8.194;2023-05-10T12:45:08;15.60;99.90
18444;DHT22;9350;53.176;8.194;2023-05-10T12:47:35;15.70;99.90
18444;DHT22;9350;53.176;8.194;2023-05-10T12:50:02;15.70;99.90
18444;DHT22;9350;53.176;8.194;2023-05-10T12:52:29;15.70;99.90
18444;DHT22;9350;53.176;8.194;2023-05-10T12:54:57;15.80;99.90
18444;DHT22;9350;53.176;8.194;2023-05-10T12:57:24;15.90;99.90
18444;DHT22;9350;53.176;8.194;2023-05-10T12:59:51;15.90;99.90
18444;DHT22;9350;53.176;8.194;2023-05-10T13:02:19;15.90;99.90
18444;DHT22;9350;53.176;8.194;2023-05-10T13:04:46;16.00;99.90
18444;DHT22;9350;53.176;8.194;2023-05-10T13:07:13;16.10;99.90
18444;DHT22;9350;53.176;8.194;2023-05-10T13:09:40;16.00;99.90
18444;DHT22;9350;53.176;8.194;2023-05-10T13:12:07;15.90;99.90
18444;DHT22;9350;53.176;8.194;2023-05-10T13:14:34;16.00;99.90
18444;DHT22;9350;53.176;8.194;2023-05-10T13:17:00;16.00;99.90
18444;DHT22;9350;53.176;8.194;2023-05-10T13:19:28;16.00;99.90
18444;DHT22;9350;53.176;8.194;2023-05-10T13:21:55;16.00;99.90
18444;DHT22;9350;53.176;8.194;2023-05-10T13:24:22;16.00;99.90
18444;DHT22;9350;53.176;8.194;2023-05-10T13:26:48;16.10;99.90
18444;DHT22;9350;53.176;8.194;2023-05-10T13:29:15;16.10;99.90
18444;DHT22;9350;53.176;8.194;2023-05-10T13:31:43;16.10;99.90
18444;DHT22;9350;53.176;8.194;2023-05-10T13:34:10;16.10;99.90
18444;DHT22;9350;53.176;8.194;2023-05-10T13:36:38;16.20;99.90
18444;DHT22;9350;53.176;8.194;2023-05-10T13:39:05;16.10;99.90
18444;DHT22;9350;53.176;8.194;2023-05-10T13:41:31;16.00;99.90
18444;DHT22;9350;53.176;8.194;2023-05-10T13:43:58;16.00;99.90
18444;DHT22;9350;53.176;8.194;2023-05-10T13:46:25;16.10;99.90
18444;DHT22;9350;53.176;8.194;2023-05-10T13:48:52;16.10;99.90
18444;DHT22;9350;53.176;8.194;2023-05-10T13:51:18;16.20;99.90
18444;DHT22;9350;53.176;8.194;2023-05-10T13:53:46;16.30;99.90
18444;DHT22;9350;53.176;8.194;2023-05-10T13:56:13;16.40;99.90
18444;DHT22;9350;53.176;8.194;2023-05-10T13:58:40;16.40;99.90
18444;DHT22;9350;53.176;8.194;2023-05-10T14:01:07;16.50;99.90
18444;DHT22;9350;53.176;8.194;2023-05-10T14:03:33;16.60;99.90
18444;DHT22;9350;53.176;8.194;2023-05-10T14:06:00;16.60;99.90
18444;DHT22;9350;53.176;8.194;2023-05-10T14:08:27;16.60;99.90
18444;DHT22;9350;53.176;8.194;2023-05-10T14:10:55;16.50;99.90
18444;DHT22;9350;53.176;8.194;2023-05-10T14:13:23;16.50;99.90
18444;DHT22;9350;53.176;8.194;2023-05-10T14:15:50;16.50;99.90
18444;DHT22;9350;53.176;8.194;2023-05-10T14:18:17;16.50;99.90
18444;DHT22;9350;53.176;8.194;2023-05-10T14:20:43;16.50;99.90
18444;DHT22;9350;53.176;8.194;2023-05-10T14:23:10;16.40;99.90
18444;DHT22;9350;53.176;8.194;2023-05-10T14:25:37;16.20;99.90
18444;DHT22;9350;53.176;8.194;2023-05-10T14:28:05;16.30;99.90
18444;DHT22;9350;53.176;8.194;2023-05-10T14:30:32;16.20;99.90
18444;DHT22;9350;53.176;8.194;2023-05-10T14:32:59;16.20;99.90
18444;DHT22;9350;53.176;8.194;2023-05-10T14:35:26;16.10;99.90
18444;DHT22;9350;53.176;8.194;2023-05-10T14:37:53;16.20;99.90
18444;DHT22;9350;53.176;8.194;2023-05-10T14:40:20;16.10;99.90
18444;DHT22;9350;53.176;8.194;2023-05-10T14:42:47;16.00;99.90
18444;DHT22;9350;53.176;8.194;2023-05-10T14:45:15;16.00;99.90
18444;DHT22;9350;53.176;8.194;2023-05-10T14:47:41;16.00;99.90
18444;DHT22;9350;53.176;8.194;2023-05-10T14:50:08;16.10;99.90
18444;DHT22;9350;53.176;8.194;2023-05-10T14:52:35;16.10;99.90
18444;DHT22;9350;53.176;8.194;2023-05-10T14:55:02;16.10;99.90
18444;DHT22;9350;53.176;8.194;2023-05-10T14:57:29;16.00;99.90
18444;DHT22;9350;53.176;8.194;2023-05-10T14:59:56;16.10;99.90
18444;DHT22;9350;53.176;8.194;2023-05-10T15:02:24;16.20;99.90
18444;DHT22;9350;53.176;8.194;2023-05-10T15:04:50;16.10;99.90
18444;DHT22;9350;53.176;8.194;2023-05-10T15:07:17;16.20;99.90
18444;DHT22;9350;53.176;8.194;2023-05-10T15:09:44;16.10;99.90
18444;DHT22;9350;53.176;8.194;2023-05-10T15:12:11;16.10;99.90
18444;DHT22;9350;53.176;8.194;2023-05-10T15:14:37;16.10;99.90
18444;DHT22;9350;53.176;8.194;2023-05-10T15:17:06;16.10;99.90
18444;DHT22;9350;53.176;8.194;2023-05-10T15:19:34;16.10;99.90
18444;DHT22;9350;53.176;8.194;2023-05-10T15:22:01;16.20;99.90
18444;DHT22;9350;53.176;8.194;2023-05-10T15:24:28;16.30;99.90
18444;DHT22;9350;53.176;8.194;2023-05-10T15:26:54;16.30;99.90
18444;DHT22;9350;53.176;8.194;2023-05-10T15:29:21;16.40;99.90
18444;DHT22;9350;53.176;8.194;2023-05-10T15:31:49;16.40;99.90
18444;DHT22;9350;53.176;8.194;2023-05-10T15:34:17;16.50;99.90
18444;DHT22;9350;53.176;8.194;2023-05-10T15:36:45;16.60;99.90
18444;DHT22;9350;53.176;8.194;2023-05-10T15:39:12;16.60;99.90
18444;DHT22;9350;53.176;8.194;2023-05-10T15:41:39;16.60;99.90
18444;DHT22;9350;53.176;8.194;2023-05-10T15:44:06;16.50;99.90
18444;DHT22;9350;53.176;8.194;2023-05-10T15:46:33;16.50;99.90
18444;DHT22;9350;53.176;8.194;2023-05-10T15:49:00;16.60;99.90
18444;DHT22;9350;53.176;8.194;2023-05-10T15:51:27;16.60;99.90
18444;DHT22;9350;53.176;8.194;2023-05-10T15:53:55;16.60;99.90
18444;DHT22;9350;53.176;8.194;2023-05-10T15:56:21;16.60;99.90